Bend, OR

2:48 AM PST on January 24, 2017 (GMT -0800)
Bend Municipal

Weather History for KBDN - November, 2012

Change the Weather History Date:

Thursday, November 1, 2012

  Actual Average (KRDM) Record (KRDM)
Temperature  
Mean Temperature 45 °F -  
Max Temperature 53 °F 52 °F 76 °F (1965)
Min Temperature 37 °F 26 °F 0 °F (2002)
Degree Days  
Heating Degree Days 20    
Moisture  
Dew Point 30 °F    
Average Humidity 53    
Maximum Humidity 75    
Minimum Humidity 35    
Precipitation  
Precipitation 0.00 in - - ()
Sea Level Pressure  
Sea Level Pressure 29.94 in    
Wind  
Wind Speed 10 mph (SSW)    
Max Wind Speed 21 mph    
Max Gust Speed 30 mph    
Visibility 10 miles    
Events      
Averages and records for this station are not official NWS values.
T = Trace of Precipitation, MM = Missing Value Source: NWS Daily Summary

Daily Weather History Graph

Daily Weather History Graph

Search for Another Location

Airport or City:

Trip Planner

Search our weather history database for the weather conditions in past years. The results will help you decide how hot, cold, wet, or windy it might be!

Date:

Astronomy

Nov. 01, 2012 Rise Set
Actual Time 7:42 AM PDT 5:53 PM PDT
Civil Twilight 7:12 AM PDT 6:24 PM PDT
Nautical Twilight 6:37 AM PDT 6:58 PM PDT
Astronomical Twilight 6:04 AM PDT 7:31 PM PDT
Moon 7:50 PM PDT (11/1) 10:23 AM PDT (11/1)
Length of Visible Light 11h 11m
Length of Day
10h 11m
Waning Gibbous, 92% of the Moon is Illuminated
Nov 1
Waning Gibbous
Nov 6
Last Quarter
Nov 13
New
Nov 20
First Quarter
Nov 28
Full

Hourly Weather History & Observations

Time (PDT) Temp. Windchill Dew Point Humidity Pressure Visibility Wind Dir Wind Speed Gust Speed Precip Events Conditions
12:15 AM 46.4 °F 41.5 °F 28.4 °F 50% 29.82 in 10.0 mi SSW 10.4 mph 18.4 mph N/A   Clear
12:35 AM 48.2 °F - 26.6 °F 43% 29.82 in 10.0 mi South 8.1 mph - N/A   Clear
12:55 AM 46.4 °F 41.5 °F 28.4 °F 50% 29.83 in 10.0 mi South 10.4 mph 16.1 mph N/A   Clear
1:15 AM 46.4 °F 45.2 °F 28.4 °F 50% 29.83 in 10.0 mi WSW 3.5 mph - N/A   Clear
1:35 AM 46.4 °F 45.2 °F 28.4 °F 50% 29.84 in 10.0 mi SW 3.5 mph - N/A   Mostly Cloudy
1:55 AM 44.6 °F 40.2 °F 30.2 °F 57% 29.84 in 10.0 mi SSW 8.1 mph - N/A   Scattered Clouds
2:15 AM 46.4 °F 40.7 °F 30.2 °F 53% 29.85 in 10.0 mi SW 12.7 mph - N/A   Mostly Cloudy
2:35 AM 46.4 °F 40.4 °F 30.2 °F 53% 29.85 in 10.0 mi SSW 13.8 mph 18.4 mph N/A   Scattered Clouds
2:55 AM 46.4 °F 41.5 °F 30.2 °F 53% 29.86 in 10.0 mi South 10.4 mph - N/A   Partly Cloudy
3:15 AM 44.6 °F 40.2 °F 30.2 °F 57% 29.86 in 10.0 mi South 8.1 mph - N/A   Partly Cloudy
3:35 AM 44.6 °F 41.4 °F 30.2 °F 57% 29.86 in 10.0 mi SSE 5.8 mph - N/A   Clear
3:55 AM 44.6 °F 43.1 °F 30.2 °F 57% 29.87 in 10.0 mi SSE 3.5 mph - N/A   Clear
4:15 AM 44.6 °F 40.7 °F 30.2 °F 57% 29.87 in 10.0 mi SSE 6.9 mph - N/A   Scattered Clouds
4:35 AM 44.6 °F - 32.0 °F 61% 29.87 in 10.0 mi Calm Calm - N/A   Mostly Cloudy
4:55 AM 41.0 °F 35.8 °F 32.0 °F 70% 29.87 in 10.0 mi SSE 8.1 mph - N/A   Scattered Clouds
5:15 AM 41.0 °F 35.2 °F 32.0 °F 70% 29.87 in 10.0 mi South 9.2 mph - N/A   Clear
5:35 AM 41.0 °F 39.0 °F 32.0 °F 70% 29.87 in 10.0 mi SSE 3.5 mph - N/A   Clear
5:55 AM 39.2 °F 35.9 °F 32.0 °F 75% 29.87 in 10.0 mi ESE 4.6 mph - N/A   Clear
6:15 AM 37.4 °F 31.4 °F 30.2 °F 75% 29.87 in 10.0 mi ENE 8.1 mph - N/A   Clear
6:35 AM 41.0 °F 38.0 °F 32.0 °F 70% 29.87 in 10.0 mi SE 4.6 mph - N/A   Clear
6:55 AM 41.0 °F - 32.0 °F 70% 29.87 in 10.0 mi Calm Calm - N/A   Clear
7:15 AM 44.6 °F 38.8 °F 30.2 °F 57% 29.87 in 10.0 mi South 11.5 mph 17.3 mph N/A   Clear
7:35 AM 44.6 °F 40.2 °F 30.2 °F 57% 29.88 in 10.0 mi South 8.1 mph - N/A   Clear
7:55 AM 44.6 °F 38.4 °F 28.4 °F 53% 29.88 in 10.0 mi SSW 12.7 mph - N/A   Clear
8:15 AM 44.6 °F 38.1 °F 28.4 °F 53% 29.89 in 10.0 mi South 13.8 mph 17.3 mph N/A   Clear
8:35 AM 46.4 °F 40.4 °F 28.4 °F 50% 29.89 in 10.0 mi South 13.8 mph - N/A   Clear
8:55 AM 46.4 °F 39.5 °F 28.4 °F 50% 29.89 in 10.0 mi SSW 17.3 mph 24.2 mph N/A   Clear
9:15 AM 46.4 °F 40.4 °F 28.4 °F 50% 29.91 in 10.0 mi SSW 13.8 mph - N/A   Clear
9:35 AM 46.4 °F 40.1 °F 28.4 °F 50% 29.91 in 10.0 mi South 15.0 mph 21.9 mph N/A   Clear
9:55 AM 48.2 °F - 28.4 °F 46% 29.92 in 10.0 mi South 13.8 mph 21.9 mph N/A   Scattered Clouds
10:15 AM 48.2 °F - 28.4 °F 46% 29.93 in 10.0 mi SW 13.8 mph 21.9 mph N/A   Mostly Cloudy
10:35 AM 48.2 °F - 28.4 °F 46% 29.93 in 10.0 mi SW 16.1 mph - N/A   Mostly Cloudy
10:55 AM 50.0 °F - 30.2 °F 47% 29.93 in 10.0 mi SSW 19.6 mph 26.5 mph N/A   Scattered Clouds
11:15 AM 50.0 °F - 30.2 °F 47% 29.93 in 10.0 mi SW 15.0 mph - N/A   Partly Cloudy
11:35 AM 51.8 °F - 30.2 °F 44% 29.94 in 10.0 mi SW 15.0 mph 23.0 mph N/A   Clear
11:55 AM 53.6 °F - 30.2 °F 41% 29.94 in 10.0 mi WSW 16.1 mph 25.3 mph N/A   Clear
12:15 PM 53.6 °F - 28.4 °F 38% 29.95 in 10.0 mi SSW 17.3 mph 23.0 mph N/A   Clear
12:35 PM 53.6 °F - 28.4 °F 38% 29.96 in 10.0 mi SW 15.0 mph 23.0 mph N/A   Partly Cloudy
12:55 PM 53.6 °F - 28.4 °F 38% 29.96 in 10.0 mi SW 16.1 mph 29.9 mph N/A   Partly Cloudy
1:15 PM 53.6 °F - 28.4 °F 38% 29.96 in 10.0 mi WSW 20.7 mph 28.8 mph N/A   Clear
1:35 PM 53.6 °F - 26.6 °F 35% 29.96 in 10.0 mi SW 17.3 mph 28.8 mph N/A   Partly Cloudy
1:55 PM 53.6 °F - 26.6 °F 35% 29.97 in 10.0 mi WSW 19.6 mph 24.2 mph N/A   Partly Cloudy
2:15 PM 53.6 °F - 26.6 °F 35% 29.97 in 10.0 mi SW 20.7 mph 27.6 mph N/A   Scattered Clouds
2:35 PM 53.6 °F - 28.4 °F 38% 29.97 in 10.0 mi SW 17.3 mph - N/A   Mostly Cloudy
2:55 PM 53.6 °F - 26.6 °F 35% 29.98 in 10.0 mi SW 15.0 mph 20.7 mph N/A   Partly Cloudy
3:35 PM 53.6 °F - 28.4 °F 38% 29.98 in 10.0 mi SW 19.6 mph - N/A   Mostly Cloudy
3:55 PM 51.8 °F - 28.4 °F 41% 29.99 in 10.0 mi SW 15.0 mph 21.9 mph N/A   Partly Cloudy
4:15 PM 53.6 °F - 28.4 °F 38% 29.99 in 10.0 mi SW 19.6 mph 23.0 mph N/A   Scattered Clouds
4:35 PM 51.8 °F - 30.2 °F 44% 29.99 in 10.0 mi SSW 12.7 mph - N/A   Partly Cloudy
4:55 PM 50.0 °F - 32.0 °F 50% 30.00 in 10.0 mi SW 16.1 mph - N/A   Clear
5:15 PM 50.0 °F - 32.0 °F 50% 30.00 in 10.0 mi SW 12.7 mph 19.6 mph N/A   Clear
5:35 PM 48.2 °F - 32.0 °F 54% 30.00 in 10.0 mi SSW 15.0 mph - N/A   Clear
5:55 PM 48.2 °F - 32.0 °F 54% 30.00 in 10.0 mi SSW 15.0 mph - N/A   Clear
6:15 PM 46.4 °F 40.7 °F 32.0 °F 57% 30.01 in 10.0 mi SW 12.7 mph - N/A   Clear
6:35 PM 46.4 °F 41.1 °F 32.0 °F 57% 30.02 in 10.0 mi SSW 11.5 mph - N/A   Clear
6:55 PM 46.4 °F 40.7 °F 30.2 °F 53% 30.02 in 10.0 mi SSW 12.7 mph - N/A   Clear
7:35 PM 46.4 °F 41.5 °F 32.0 °F 57% 30.03 in 10.0 mi SW 10.4 mph - N/A   Clear
7:55 PM 46.4 °F 41.9 °F 32.0 °F 57% 30.04 in 10.0 mi SSW 9.2 mph - N/A   Clear
8:15 PM 44.6 °F 40.7 °F 32.0 °F 61% 30.04 in 10.0 mi SSW 6.9 mph - N/A   Clear
8:35 PM 44.6 °F 39.7 °F 32.0 °F 61% 30.04 in 10.0 mi South 9.2 mph - N/A   Clear
8:55 PM 41.0 °F 36.4 °F 32.0 °F 70% 30.04 in 10.0 mi SSW 6.9 mph - N/A   Clear
9:15 PM 41.0 °F 35.8 °F 32.0 °F 70% 30.05 in 10.0 mi SSW 8.1 mph - N/A   Clear
9:35 PM 41.0 °F 36.4 °F 32.0 °F 70% 30.05 in 10.0 mi SSW 6.9 mph - N/A   Clear
9:55 PM 41.0 °F 36.4 °F 28.4 °F 61% 30.06 in 10.0 mi WSW 6.9 mph - N/A   Clear
10:15 PM 42.8 °F 39.3 °F 28.4 °F 57% 30.06 in 10.0 mi WSW 5.8 mph - N/A   Clear
10:35 PM 39.2 °F 35.0 °F 28.4 °F 65% 30.06 in 10.0 mi SSW 5.8 mph - N/A   Clear
10:55 PM 39.2 °F 33.6 °F 28.4 °F 65% 30.07 in 10.0 mi SSW 8.1 mph - N/A   Clear
11:15 PM 39.2 °F 35.9 °F 28.4 °F 65% 30.07 in 10.0 mi South 4.6 mph - N/A   Clear
11:35 PM 39.2 °F 35.9 °F 28.4 °F 65% 30.08 in 10.0 mi South 4.6 mph - N/A   Clear
11:55 PM 37.4 °F 32.8 °F 28.4 °F 70% 30.08 in 10.0 mi SSW 5.8 mph - N/A   Clear